sensor_id;sensor_type;location;lat;lon;timestamp;temperature;humidity
42147;DHT22;27815;43.410;11.852;2023-05-15T00:00:27;14.40;71.90
42147;DHT22;27815;43.410;11.852;2023-05-15T00:04:30;14.40;72.00
42147;DHT22;27815;43.410;11.852;2023-05-15T00:08:34;14.40;72.00
42147;DHT22;27815;43.410;11.852;2023-05-15T00:12:37;14.40;72.10
42147;DHT22;27815;43.410;11.852;2023-05-15T00:16:40;14.50;72.10
42147;DHT22;27815;43.410;11.852;2023-05-15T00:20:43;14.40;72.10
42147;DHT22;27815;43.410;11.852;2023-05-15T00:24:47;14.40;72.00
42147;DHT22;27815;43.410;11.852;2023-05-15T00:28:50;14.40;72.00
42147;DHT22;27815;43.410;11.852;2023-05-15T00:32:53;14.30;72.30
42147;DHT22;27815;43.410;11.852;2023-05-15T00:36:56;14.20;72.40
42147;DHT22;27815;43.410;11.852;2023-05-15T00:41:00;14.20;72.50
42147;DHT22;27815;43.410;11.852;2023-05-15T00:45:04;14.10;72.40
42147;DHT22;27815;43.410;11.852;2023-05-15T00:49:11;14.10;72.50
42147;DHT22;27815;43.410;11.852;2023-05-15T00:53:16;14.10;72.60
42147;DHT22;27815;43.410;11.852;2023-05-15T00:57:20;14.00;72.70
42147;DHT22;27815;43.410;11.852;2023-05-15T01:01:25;13.90;72.80
42147;DHT22;27815;43.410;11.852;2023-05-15T01:05:28;13.80;73.00
42147;DHT22;27815;43.410;11.852;2023-05-15T01:09:34;13.80;73.10
42147;DHT22;27815;43.410;11.852;2023-05-15T01:13:38;13.80;73.10
42147;DHT22;27815;43.410;11.852;2023-05-15T01:17:41;13.80;73.00
42147;DHT22;27815;43.410;11.852;2023-05-15T01:26:43;13.60;73.80
42147;DHT22;27815;43.410;11.852;2023-05-15T01:30:55;13.50;74.00
42147;DHT22;27815;43.410;11.852;2023-05-15T01:39:35;13.40;74.30
42147;DHT22;27815;43.410;11.852;2023-05-15T01:43:44;13.40;74.50
42147;DHT22;27815;43.410;11.852;2023-05-15T01:47:47;13.30;74.60
42147;DHT22;27815;43.410;11.852;2023-05-15T01:51:58;13.20;74.60
42147;DHT22;27815;43.410;11.852;2023-05-15T01:56:05;13.10;74.90
42147;DHT22;27815;43.410;11.852;2023-05-15T02:00:11;13.00;75.00
42147;DHT22;27815;43.410;11.852;2023-05-15T02:04:18;13.00;75.00
42147;DHT22;27815;43.410;11.852;2023-05-15T02:08:25;12.80;75.00
42147;DHT22;27815;43.410;11.852;2023-05-15T02:12:30;12.70;75.00
42147;DHT22;27815;43.410;11.852;2023-05-15T02:16:34;12.60;75.00
42147;DHT22;27815;43.410;11.852;2023-05-15T02:20:37;12.50;75.00
42147;DHT22;27815;43.410;11.852;2023-05-15T02:24:41;12.50;75.10
42147;DHT22;27815;43.410;11.852;2023-05-15T02:28:58;12.40;75.10
42147;DHT22;27815;43.410;11.852;2023-05-15T02:33:46;12.30;75.20
42147;DHT22;27815;43.410;11.852;2023-05-15T02:37:48;12.20;75.40
42147;DHT22;27815;43.410;11.852;2023-05-15T02:41:52;12.20;75.20
42147;DHT22;27815;43.410;11.852;2023-05-15T02:45:56;12.10;75.10
42147;DHT22;27815;43.410;11.852;2023-05-15T02:50:00;12.10;75.10
42147;DHT22;27815;43.410;11.852;2023-05-15T02:54:07;12.00;75.20
42147;DHT22;27815;43.410;11.852;2023-05-15T02:58:11;11.70;75.50
42147;DHT22;27815;43.410;11.852;2023-05-15T03:02:14;11.70;75.50
42147;DHT22;27815;43.410;11.852;2023-05-15T03:06:17;11.80;75.50
42147;DHT22;27815;43.410;11.852;2023-05-15T03:10:20;11.80;75.40
42147;DHT22;27815;43.410;11.852;2023-05-15T03:14:25;12.00;75.40
42147;DHT22;27815;43.410;11.852;2023-05-15T03:18:29;12.00;75.40
42147;DHT22;27815;43.410;11.852;2023-05-15T03:22:32;11.90;75.40
42147;DHT22;27815;43.410;11.852;2023-05-15T03:26:35;11.70;75.50
42147;DHT22;27815;43.410;11.852;2023-05-15T03:30:38;11.60;75.50
42147;DHT22;27815;43.410;11.852;2023-05-15T03:34:48;11.50;75.60
42147;DHT22;27815;43.410;11.852;2023-05-15T03:38:51;11.60;75.50
42147;DHT22;27815;43.410;11.852;2023-05-15T03:42:54;11.50;75.40
42147;DHT22;27815;43.410;11.852;2023-05-15T03:46:57;11.50;75.40
42147;DHT22;27815;43.410;11.852;2023-05-15T03:51:00;11.50;75.40
42147;DHT22;27815;43.410;11.852;2023-05-15T03:55:05;11.50;75.40
42147;DHT22;27815;43.410;11.852;2023-05-15T03:59:08;11.60;75.40
42147;DHT22;27815;43.410;11.852;2023-05-15T04:03:12;11.70;75.40
42147;DHT22;27815;43.410;11.852;2023-05-15T04:07:15;11.80;75.40
42147;DHT22;27815;43.410;11.852;2023-05-15T04:11:18;11.80;75.40
42147;DHT22;27815;43.410;11.852;2023-05-15T04:15:23;11.90;75.50
42147;DHT22;27815;43.410;11.852;2023-05-15T04:19:26;12.00;75.60
42147;DHT22;27815;43.410;11.852;2023-05-15T04:23:29;12.00;75.50
42147;DHT22;27815;43.410;11.852;2023-05-15T04:27:36;12.10;75.50
42147;DHT22;27815;43.410;11.852;2023-05-15T04:31:41;12.20;75.50
42147;DHT22;27815;43.410;11.852;2023-05-15T04:41:48;12.30;75.70
42147;DHT22;27815;43.410;11.852;2023-05-15T04:50:54;12.50;75.80
42147;DHT22;27815;43.410;11.852;2023-05-15T04:55:26;12.40;76.00
42147;DHT22;27815;43.410;11.852;2023-05-15T04:59:43;12.30;76.10
42147;DHT22;27815;43.410;11.852;2023-05-15T05:03:58;12.30;75.90
42147;DHT22;27815;43.410;11.852;2023-05-15T05:08:04;12.30;76.20
42147;DHT22;27815;43.410;11.852;2023-05-15T05:12:10;12.40;76.30
42147;DHT22;27815;43.410;11.852;2023-05-15T05:16:15;12.50;76.10
42147;DHT22;27815;43.410;11.852;2023-05-15T05:20:18;12.60;76.10
42147;DHT22;27815;43.410;11.852;2023-05-15T05:24:24;12.70;76.20
42147;DHT22;27815;43.410;11.852;2023-05-15T05:28:29;12.90;76.30
42147;DHT22;27815;43.410;11.852;2023-05-15T05:32:33;13.00;76.30
42147;DHT22;27815;43.410;11.852;2023-05-15T05:36:36;13.20;76.20
42147;DHT22;27815;43.410;11.852;2023-05-15T05:40:39;13.30;76.00
42147;DHT22;27815;43.410;11.852;2023-05-15T05:44:42;13.30;76.30
42147;DHT22;27815;43.410;11.852;2023-05-15T05:48:45;13.40;76.40
42147;DHT22;27815;43.410;11.852;2023-05-15T05:52:48;13.50;76.30
42147;DHT22;27815;43.410;11.852;2023-05-15T05:56:51;13.60;76.30
42147;DHT22;27815;43.410;11.852;2023-05-15T06:00:54;13.70;76.10
42147;DHT22;27815;43.410;11.852;2023-05-15T06:04:57;13.90;76.10
42147;DHT22;27815;43.410;11.852;2023-05-15T06:09:00;14.10;75.90
42147;DHT22;27815;43.410;11.852;2023-05-15T06:13:03;14.20;75.60
42147;DHT22;27815;43.410;11.852;2023-05-15T06:17:05;14.50;75.30
42147;DHT22;27815;43.410;11.852;2023-05-15T06:21:08;14.70;75.00
42147;DHT22;27815;43.410;11.852;2023-05-15T06:25:11;15.00;74.90
42147;DHT22;27815;43.410;11.852;2023-05-15T06:29:16;15.20;74.60
42147;DHT22;27815;43.410;11.852;2023-05-15T06:33:19;15.60;74.00
42147;DHT22;27815;43.410;11.852;2023-05-15T06:37:23;15.80;73.70
42147;DHT22;27815;43.410;11.852;2023-05-15T06:41:26;15.80;73.40
42147;DHT22;27815;43.410;11.852;2023-05-15T06:45:29;15.90;73.20
42147;DHT22;27815;43.410;11.852;2023-05-15T06:49:32;15.90;72.90
42147;DHT22;27815;43.410;11.852;2023-05-15T06:53:35;15.90;72.30
42147;DHT22;27815;43.410;11.852;2023-05-15T06:57:38;16.00;72.10
42147;DHT22;27815;43.410;11.852;2023-05-15T07:01:41;16.10;71.90
42147;DHT22;27815;43.410;11.852;2023-05-15T07:05:44;16.30;71.40
42147;DHT22;27815;43.410;11.852;2023-05-15T07:09:47;16.60;70.90
42147;DHT22;27815;43.410;11.852;2023-05-15T07:13:52;16.80;70.40
42147;DHT22;27815;43.410;11.852;2023-05-15T07:17:55;16.90;69.80
42147;DHT22;27815;43.410;11.852;2023-05-15T07:21:58;17.00;69.70
42147;DHT22;27815;43.410;11.852;2023-05-15T07:26:03;17.20;69.20
42147;DHT22;27815;43.410;11.852;2023-05-15T07:30:06;17.20;68.20
42147;DHT22;27815;43.410;11.852;2023-05-15T07:34:10;17.20;67.40
42147;DHT22;27815;43.410;11.852;2023-05-15T07:38:13;17.20;66.50
42147;DHT22;27815;43.410;11.852;2023-05-15T07:42:16;17.30;66.20
42147;DHT22;27815;43.410;11.852;2023-05-15T07:46:19;17.40;65.00
42147;DHT22;27815;43.410;11.852;2023-05-15T07:50:22;17.40;64.40
42147;DHT22;27815;43.410;11.852;2023-05-15T07:54:25;17.50;63.40
42147;DHT22;27815;43.410;11.852;2023-05-15T07:58:28;17.50;63.40
42147;DHT22;27815;43.410;11.852;2023-05-15T08:02:35;17.60;62.20
42147;DHT22;27815;43.410;11.852;2023-05-15T08:06:41;17.70;61.30
42147;DHT22;27815;43.410;11.852;2023-05-15T08:10:46;17.80;61.10
42147;DHT22;27815;43.410;11.852;2023-05-15T08:14:53;17.80;60.30
42147;DHT22;27815;43.410;11.852;2023-05-15T08:18:56;18.10;60.50
42147;DHT22;27815;43.410;11.852;2023-05-15T08:23:03;18.30;59.90
42147;DHT22;27815;43.410;11.852;2023-05-15T08:27:06;18.30;59.70
42147;DHT22;27815;43.410;11.852;2023-05-15T08:31:10;18.40;58.50
42147;DHT22;27815;43.410;11.852;2023-05-15T08:35:12;18.40;58.80
42147;DHT22;27815;43.410;11.852;2023-05-15T08:39:16;18.60;58.60
42147;DHT22;27815;43.410;11.852;2023-05-15T08:43:20;18.60;58.20
42147;DHT22;27815;43.410;11.852;2023-05-15T08:47:29;18.80;58.00
42147;DHT22;27815;43.410;11.852;2023-05-15T08:51:36;19.10;57.90
42147;DHT22;27815;43.410;11.852;2023-05-15T08:55:39;19.50;57.30
42147;DHT22;27815;43.410;11.852;2023-05-15T08:59:43;19.50;55.80
42147;DHT22;27815;43.410;11.852;2023-05-15T09:03:46;19.50;56.30
42147;DHT22;27815;43.410;11.852;2023-05-15T09:07:51;19.40;56.60
42147;DHT22;27815;43.410;11.852;2023-05-15T09:11:56;19.20;56.70
42147;DHT22;27815;43.410;11.852;2023-05-15T09:16:00;19.30;57.50
42147;DHT22;27815;43.410;11.852;2023-05-15T09:20:03;19.40;57.70
42147;DHT22;27815;43.410;11.852;2023-05-15T09:24:24;19.30;57.50
42147;DHT22;27815;43.410;11.852;2023-05-15T09:28:29;19.30;57.60
42147;DHT22;27815;43.410;11.852;2023-05-15T09:32:33;19.20;57.80
42147;DHT22;27815;43.410;11.852;2023-05-15T09:36:41;19.20;58.30
42147;DHT22;27815;43.410;11.852;2023-05-15T09:40:45;19.20;58.10
42147;DHT22;27815;43.410;11.852;2023-05-15T09:44:48;19.10;58.80
42147;DHT22;27815;43.410;11.852;2023-05-15T09:48:54;19.20;58.40
42147;DHT22;27815;43.410;11.852;2023-05-15T09:52:58;19.10;58.10
42147;DHT22;27815;43.410;11.852;2023-05-15T09:57:10;19.30;58.10
42147;DHT22;27815;43.410;11.852;2023-05-15T10:01:18;19.50;57.80
42147;DHT22;27815;43.410;11.852;2023-05-15T10:05:25;19.80;57.50
42147;DHT22;27815;43.410;11.852;2023-05-15T10:09:44;19.80;56.60
42147;DHT22;27815;43.410;11.852;2023-05-15T10:13:47;19.90;57.10
42147;DHT22;27815;43.410;11.852;2023-05-15T10:17:51;20.00;56.70
42147;DHT22;27815;43.410;11.852;2023-05-15T10:21:55;19.90;55.80
42147;DHT22;27815;43.410;11.852;2023-05-15T10:26:01;19.70;55.30
42147;DHT22;27815;43.410;11.852;2023-05-15T10:30:06;19.60;55.50
42147;DHT22;27815;43.410;11.852;2023-05-15T10:34:11;19.80;55.20
42147;DHT22;27815;43.410;11.852;2023-05-15T10:38:16;19.90;55.10
42147;DHT22;27815;43.410;11.852;2023-05-15T10:42:25;19.90;54.70
42147;DHT22;27815;43.410;11.852;2023-05-15T10:46:29;19.80;53.80
42147;DHT22;27815;43.410;11.852;2023-05-15T10:50:35;19.70;54.80
42147;DHT22;27815;43.410;11.852;2023-05-15T10:54:39;19.90;55.00
42147;DHT22;27815;43.410;11.852;2023-05-15T10:58:49;20.00;53.80
42147;DHT22;27815;43.410;11.852;2023-05-15T11:02:53;20.10;53.20
42147;DHT22;27815;43.410;11.852;2023-05-15T11:07:11;20.30;52.90
42147;DHT22;27815;43.410;11.852;2023-05-15T11:15:43;20.90;53.20
42147;DHT22;27815;43.410;11.852;2023-05-15T11:24:02;20.80;50.60
42147;DHT22;27815;43.410;11.852;2023-05-15T11:28:20;20.90;51.30
42147;DHT22;27815;43.410;11.852;2023-05-15T11:36:45;21.60;51.20
42147;DHT22;27815;43.410;11.852;2023-05-15T11:40:57;21.50;50.20
42147;DHT22;27815;43.410;11.852;2023-05-15T11:45:03;21.50;49.80
42147;DHT22;27815;43.410;11.852;2023-05-15T11:49:07;21.40;51.00
42147;DHT22;27815;43.410;11.852;2023-05-15T11:53:11;21.50;50.00
42147;DHT22;27815;43.410;11.852;2023-05-15T11:57:14;21.40;50.10
42147;DHT22;27815;43.410;11.852;2023-05-15T12:01:17;21.30;50.20
42147;DHT22;27815;43.410;11.852;2023-05-15T12:05:21;21.00;50.70
42147;DHT22;27815;43.410;11.852;2023-05-15T12:09:24;20.90;50.70
42147;DHT22;27815;43.410;11.852;2023-05-15T12:13:30;20.90;51.10
42147;DHT22;27815;43.410;11.852;2023-05-15T12:17:33;20.70;51.10
42147;DHT22;27815;43.410;11.852;2023-05-15T12:21:37;20.60;51.30
42147;DHT22;27815;43.410;11.852;2023-05-15T12:25:45;20.80;51.30
42147;DHT22;27815;43.410;11.852;2023-05-15T12:29:49;20.90;51.30
42147;DHT22;27815;43.410;11.852;2023-05-15T12:33:52;20.90;51.50
42147;DHT22;27815;43.410;11.852;2023-05-15T12:37:55;20.80;51.10
42147;DHT22;27815;43.410;11.852;2023-05-15T12:41:58;20.60;51.20
42147;DHT22;27815;43.410;11.852;2023-05-15T12:46:01;20.80;51.60
42147;DHT22;27815;43.410;11.852;2023-05-15T12:50:19;21.00;51.70
42147;DHT22;27815;43.410;11.852;2023-05-15T12:54:23;21.00;51.40
42147;DHT22;27815;43.410;11.852;2023-05-15T12:58:27;21.00;50.90
42147;DHT22;27815;43.410;11.852;2023-05-15T13:02:30;21.10;51.20
42147;DHT22;27815;43.410;11.852;2023-05-15T13:06:33;21.20;51.20
42147;DHT22;27815;43.410;11.852;2023-05-15T13:10:57;21.40;50.60
42147;DHT22;27815;43.410;11.852;2023-05-15T13:15:01;21.20;50.40
42147;DHT22;27815;43.410;11.852;2023-05-15T13:19:04;21.10;51.00
42147;DHT22;27815;43.410;11.852;2023-05-15T13:23:10;21.20;51.20
42147;DHT22;27815;43.410;11.852;2023-05-15T13:27:13;21.30;51.20
42147;DHT22;27815;43.410;11.852;2023-05-15T13:31:16;21.30;50.20
42147;DHT22;27815;43.410;11.852;2023-05-15T13:35:20;21.30;50.80
42147;DHT22;27815;43.410;11.852;2023-05-15T13:39:23;21.40;50.50
42147;DHT22;27815;43.410;11.852;2023-05-15T13:43:25;21.30;49.90
42147;DHT22;27815;43.410;11.852;2023-05-15T13:47:31;21.20;49.50
42147;DHT22;27815;43.410;11.852;2023-05-15T13:51:34;21.40;49.90
42147;DHT22;27815;43.410;11.852;2023-05-15T13:55:37;21.50;49.30
42147;DHT22;27815;43.410;11.852;2023-05-15T13:59:40;21.50;49.00
42147;DHT22;27815;43.410;11.852;2023-05-15T14:03:43;21.50;49.00
42147;DHT22;27815;43.410;11.852;2023-05-15T14:07:47;21.50;49.70
42147;DHT22;27815;43.410;11.852;2023-05-15T14:11:50;21.50;49.00
42147;DHT22;27815;43.410;11.852;2023-05-15T14:15:53;21.40;49.10
42147;DHT22;27815;43.410;11.852;2023-05-15T14:19:56;21.50;49.50
42147;DHT22;27815;43.410;11.852;2023-05-15T14:23:59;21.40;49.50
42147;DHT22;27815;43.410;11.852;2023-05-15T14:28:02;21.30;50.10
42147;DHT22;27815;43.410;11.852;2023-05-15T14:32:05;21.30;49.90
42147;DHT22;27815;43.410;11.852;2023-05-15T14:36:08;21.30;50.30
42147;DHT22;27815;43.410;11.852;2023-05-15T14:40:12;21.30;50.10
42147;DHT22;27815;43.410;11.852;2023-05-15T14:44:14;21.10;50.10
42147;DHT22;27815;43.410;11.852;2023-05-15T14:48:18;21.00;50.80
42147;DHT22;27815;43.410;11.852;2023-05-15T14:52:21;21.00;50.80
42147;DHT22;27815;43.410;11.852;2023-05-15T14:56:24;20.80;51.10
42147;DHT22;27815;43.410;11.852;2023-05-15T15:00:27;20.70;51.20
42147;DHT22;27815;43.410;11.852;2023-05-15T15:04:30;20.70;51.40
42147;DHT22;27815;43.410;11.852;2023-05-15T15:08:36;20.60;51.40
42147;DHT22;27815;43.410;11.852;2023-05-15T15:12:41;20.70;51.70
42147;DHT22;27815;43.410;11.852;2023-05-15T15:16:44;20.90;52.00
42147;DHT22;27815;43.410;11.852;2023-05-15T15:20:48;20.90;51.70
42147;DHT22;27815;43.410;11.852;2023-05-15T15:24:51;20.90;51.70
42147;DHT22;27815;43.410;11.852;2023-05-15T15:28:54;20.80;52.30
42147;DHT22;27815;43.410;11.852;2023-05-15T15:33:04;20.70;51.50
42147;DHT22;27815;43.410;11.852;2023-05-15T15:37:07;20.60;51.70
42147;DHT22;27815;43.410;11.852;2023-05-15T15:45:52;20.40;51.10
42147;DHT22;27815;43.410;11.852;2023-05-15T15:49:58;20.40;51.50
42147;DHT22;27815;43.410;11.852;2023-05-15T15:54:01;20.50;50.60
42147;DHT22;27815;43.410;11.852;2023-05-15T15:58:04;20.50;49.80
42147;DHT22;27815;43.410;11.852;2023-05-15T16:02:07;20.60;49.40
42147;DHT22;27815;43.410;11.852;2023-05-15T16:06:10;20.60;49.30
42147;DHT22;27815;43.410;11.852;2023-05-15T16:10:17;20.80;49.00
42147;DHT22;27815;43.410;11.852;2023-05-15T16:14:20;21.00;48.40
42147;DHT22;27815;43.410;11.852;2023-05-15T16:18:23;20.90;48.40
42147;DHT22;27815;43.410;11.852;2023-05-15T16:22:26;20.80;48.50
42147;DHT22;27815;43.410;11.852;2023-05-15T16:26:29;20.70;48.80
42147;DHT22;27815;43.410;11.852;2023-05-15T16:30:32;20.60;48.50
42147;DHT22;27815;43.410;11.852;2023-05-15T16:34:42;20.50;48.90
42147;DHT22;27815;43.410;11.852;2023-05-15T16:38:44;20.50;49.10
42147;DHT22;27815;43.410;11.852;2023-05-15T16:42:47;20.50;48.40
42147;DHT22;27815;43.410;11.852;2023-05-15T16:46:50;20.60;48.30
42147;DHT22;27815;43.410;11.852;2023-05-15T16:50:53;20.70;48.50
42147;DHT22;27815;43.410;11.852;2023-05-15T16:54:56;20.60;48.30
42147;DHT22;27815;43.410;11.852;2023-05-15T16:58:59;20.60;48.80
42147;DHT22;27815;43.410;11.852;2023-05-15T17:03:03;20.50;48.80
42147;DHT22;27815;43.410;11.852;2023-05-15T17:07:07;20.50;48.50
42147;DHT22;27815;43.410;11.852;2023-05-15T17:11:11;20.40;48.80
42147;DHT22;27815;43.410;11.852;2023-05-15T17:15:15;20.20;49.10
42147;DHT22;27815;43.410;11.852;2023-05-15T17:19:18;20.00;49.40
42147;DHT22;27815;43.410;11.852;2023-05-15T17:23:21;19.80;49.20
42147;DHT22;27815;43.410;11.852;2023-05-15T17:27:24;19.70;49.60
42147;DHT22;27815;43.410;11.852;2023-05-15T17:31:27;19.50;49.80
42147;DHT22;27815;43.410;11.852;2023-05-15T17:35:31;19.20;50.30
42147;DHT22;27815;43.410;11.852;2023-05-15T17:39:34;19.00;50.60
42147;DHT22;27815;43.410;11.852;2023-05-15T17:43:38;18.80;51.10
42147;DHT22;27815;43.410;11.852;2023-05-15T17:47:45;18.50;51.50
42147;DHT22;27815;43.410;11.852;2023-05-15T17:51:53;18.30;52.00
42147;DHT22;27815;43.410;11.852;2023-05-15T17:55:57;18.30;51.90
42147;DHT22;27815;43.410;11.852;2023-05-15T18:00:00;18.20;52.20
42147;DHT22;27815;43.410;11.852;2023-05-15T18:04:03;18.00;52.40
42147;DHT22;27815;43.410;11.852;2023-05-15T18:08:06;17.90;52.70
42147;DHT22;27815;43.410;11.852;2023-05-15T18:12:09;17.70;53.00
42147;DHT22;27815;43.410;11.852;2023-05-15T18:16:13;17.60;53.30
42147;DHT22;27815;43.410;11.852;2023-05-15T18:20:16;17.50;53.60
42147;DHT22;27815;43.410;11.852;2023-05-15T18:24:19;17.50;53.80
42147;DHT22;27815;43.410;11.852;2023-05-15T18:28:22;17.40;54.00
42147;DHT22;27815;43.410;11.852;2023-05-15T18:32:25;17.30;54.40
42147;DHT22;27815;43.410;11.852;2023-05-15T18:36:27;17.30;54.50
42147;DHT22;27815;43.410;11.852;2023-05-15T18:40:31;17.20;54.70
42147;DHT22;27815;43.410;11.852;2023-05-15T18:44:33;17.10;54.90
42147;DHT22;27815;43.410;11.852;2023-05-15T18:48:37;17.00;55.00
42147;DHT22;27815;43.410;11.852;2023-05-15T18:52:43;16.90;55.10
42147;DHT22;27815;43.410;11.852;2023-05-15T18:56:46;16.80;55.20
42147;DHT22;27815;43.410;11.852;2023-05-15T19:00:49;16.80;55.30
42147;DHT22;27815;43.410;11.852;2023-05-15T19:04:52;16.70;55.40
42147;DHT22;27815;43.410;11.852;2023-05-15T19:08:55;16.60;55.60
42147;DHT22;27815;43.410;11.852;2023-05-15T19:12:58;16.50;55.80
42147;DHT22;27815;43.410;11.852;2023-05-15T19:17:01;16.50;55.80
42147;DHT22;27815;43.410;11.852;2023-05-15T19:21:04;16.50;55.90
42147;DHT22;27815;43.410;11.852;2023-05-15T19:25:09;16.40;56.10
42147;DHT22;27815;43.410;11.852;2023-05-15T19:29:12;16.40;56.50
42147;DHT22;27815;43.410;11.852;2023-05-15T19:33:15;16.40;56.40
42147;DHT22;27815;43.410;11.852;2023-05-15T19:37:18;16.40;56.40
42147;DHT22;27815;43.410;11.852;2023-05-15T19:41:21;16.30;56.50
42147;DHT22;27815;43.410;11.852;2023-05-15T19:45:26;16.30;56.40
42147;DHT22;27815;43.410;11.852;2023-05-15T19:49:31;16.30;56.50
42147;DHT22;27815;43.410;11.852;2023-05-15T19:53:34;16.30;56.50
42147;DHT22;27815;43.410;11.852;2023-05-15T19:57:40;16.30;56.50
42147;DHT22;27815;43.410;11.852;2023-05-15T20:01:44;16.20;56.60
42147;DHT22;27815;43.410;11.852;2023-05-15T20:05:47;16.20;56.70
42147;DHT22;27815;43.410;11.852;2023-05-15T20:09:50;16.10;56.80
42147;DHT22;27815;43.410;11.852;2023-05-15T20:13:53;16.10;56.80
42147;DHT22;27815;43.410;11.852;2023-05-15T20:17:56;16.00;56.80
42147;DHT22;27815;43.410;11.852;2023-05-15T20:22:02;16.10;56.60
42147;DHT22;27815;43.410;11.852;2023-05-15T20:26:06;16.10;56.50
42147;DHT22;27815;43.410;11.852;2023-05-15T20:30:09;16.10;56.40
42147;DHT22;27815;43.410;11.852;2023-05-15T20:34:12;16.20;56.40
42147;DHT22;27815;43.410;11.852;2023-05-15T20:38:16;16.20;56.30
42147;DHT22;27815;43.410;11.852;2023-05-15T20:42:20;16.20;56.40
42147;DHT22;27815;43.410;11.852;2023-05-15T20:46:23;16.20;56.40
42147;DHT22;27815;43.410;11.852;2023-05-15T20:50:31;16.10;56.50
42147;DHT22;27815;43.410;11.852;2023-05-15T20:54:35;16.10;56.50
42147;DHT22;27815;43.410;11.852;2023-05-15T20:58:38;16.10;56.50
42147;DHT22;27815;43.410;11.852;2023-05-15T21:02:43;16.10;56.50
42147;DHT22;27815;43.410;11.852;2023-05-15T21:06:47;16.10;56.50
42147;DHT22;27815;43.410;11.852;2023-05-15T21:10:50;16.10;56.60
42147;DHT22;27815;43.410;11.852;2023-05-15T21:14:57;16.10;56.70
42147;DHT22;27815;43.410;11.852;2023-05-15T21:19:00;16.00;56.70
42147;DHT22;27815;43.410;11.852;2023-05-15T21:23:03;16.00;56.80
42147;DHT22;27815;43.410;11.852;2023-05-15T21:27:06;16.00;56.90
42147;DHT22;27815;43.410;11.852;2023-05-15T21:31:10;16.00;56.90
42147;DHT22;27815;43.410;11.852;2023-05-15T21:35:13;16.00;56.90
42147;DHT22;27815;43.410;11.852;2023-05-15T21:39:16;16.00;56.90
42147;DHT22;27815;43.410;11.852;2023-05-15T21:43:20;16.00;57.00
42147;DHT22;27815;43.410;11.852;2023-05-15T21:47:23;16.00;57.10
42147;DHT22;27815;43.410;11.852;2023-05-15T21:51:26;16.00;57.30
42147;DHT22;27815;43.410;11.852;2023-05-15T21:55:29;16.00;57.40
42147;DHT22;27815;43.410;11.852;2023-05-15T21:59:32;16.00;57.40
42147;DHT22;27815;43.410;11.852;2023-05-15T22:03:36;15.90;57.60
42147;DHT22;27815;43.410;11.852;2023-05-15T22:07:39;15.90;57.70
42147;DHT22;27815;43.410;11.852;2023-05-15T22:11:42;15.90;57.60
42147;DHT22;27815;43.410;11.852;2023-05-15T22:15:45;15.90;57.70
42147;DHT22;27815;43.410;11.852;2023-05-15T22:19:48;15.90;57.70
42147;DHT22;27815;43.410;11.852;2023-05-15T22:23:51;15.80;57.80
42147;DHT22;27815;43.410;11.852;2023-05-15T22:27:54;15.80;57.90
42147;DHT22;27815;43.410;11.852;2023-05-15T22:31:57;15.80;57.90
42147;DHT22;27815;43.410;11.852;2023-05-15T22:36:00;15.80;58.00
42147;DHT22;27815;43.410;11.852;2023-05-15T22:40:04;15.80;58.10
42147;DHT22;27815;43.410;11.852;2023-05-15T22:44:09;15.70;58.30
42147;DHT22;27815;43.410;11.852;2023-05-15T22:48:13;15.60;58.40
42147;DHT22;27815;43.410;11.852;2023-05-15T22:52:17;15.60;58.60
42147;DHT22;27815;43.410;11.852;2023-05-15T22:56:20;15.50;59.00
42147;DHT22;27815;43.410;11.852;2023-05-15T23:00:23;15.40;59.80
42147;DHT22;27815;43.410;11.852;2023-05-15T23:04:29;15.20;60.80
42147;DHT22;27815;43.410;11.852;2023-05-15T23:08:32;15.00;61.60
42147;DHT22;27815;43.410;11.852;2023-05-15T23:12:35;14.80;62.00
42147;DHT22;27815;43.410;11.852;2023-05-15T23:16:37;14.70;62.30
42147;DHT22;27815;43.410;11.852;2023-05-15T23:20:40;14.60;62.70
42147;DHT22;27815;43.410;11.852;2023-05-15T23:24:43;14.50;63.30
42147;DHT22;27815;43.410;11.852;2023-05-15T23:28:46;14.40;63.90
42147;DHT22;27815;43.410;11.852;2023-05-15T23:32:49;14.40;64.10
42147;DHT22;27815;43.410;11.852;2023-05-15T23:36:52;14.40;64.40
42147;DHT22;27815;43.410;11.852;2023-05-15T23:40:55;14.40;65.00
42147;DHT22;27815;43.410;11.852;2023-05-15T23:44:58;14.30;65.50
42147;DHT22;27815;43.410;11.852;2023-05-15T23:49:01;14.40;65.70
42147;DHT22;27815;43.410;11.852;2023-05-15T23:53:04;14.40;66.00
42147;DHT22;27815;43.410;11.852;2023-05-15T23:57:07;14.40;66.20
